Time;durP1;ratioP1;P1;durP2;ratioP2;P2;SDS_P1;SDS_P2;PMS_P1;PMS_P2;Temp;Humidity;BMP_temperature;BMP_pressure;BME280_temperature;BME280_humidity;BME280_pressure;Samples;Min_cycle;Max_cycle;Signal;HPM_P1;HPM_P2
2024/03/12 00:00:58;;;;;;;5.80;5.20;;;;;;;;;;5022867;28;20518;-87
2024/03/12 00:03:30;;;;;;;7.60;5.50;;;;;;;;;;5029830;28;20449;-88
2024/03/12 00:05:59;;;;;;;8.90;6.30;;;;;;;;;;5020705;28;20526;-86
2024/03/12 00:08:30;;;;;;;7.03;5.30;;;;;;;;;;5006789;28;20458;-88
2024/03/12 00:10:58;;;;;;;9.40;7.20;;;;;;;;;;5021585;28;20819;-87
2024/03/12 00:13:26;;;;;;;11.37;7.90;;;;;;;;;;5008164;28;20525;-87
2024/03/12 00:15:55;;;;;;;11.77;7.80;;;;;;;;;;5023249;28;21066;-86
2024/03/12 00:18:25;;;;;;;12.13;8.40;;;;;;;;;;5010018;28;21022;-88
2024/03/12 00:20:53;;;;;;;13.53;9.10;;;;;;;;;;5007669;28;20525;-89
2024/03/12 00:23:25;;;;;;;13.37;8.77;;;;;;;;;;5006016;28;20455;-85
2024/03/12 00:25:53;;;;;;;13.40;9.33;;;;;;;;;;5006300;28;21219;-87
2024/03/12 00:28:20;;;;;;;15.87;10.47;;;;;;;;;;5026215;28;20486;-86
2024/03/12 00:30:49;;;;;;;13.07;9.03;;;;;;;;;;5008531;28;20462;-87
2024/03/12 00:33:18;;;;;;;14.10;9.90;;;;;;;;;;5024314;28;20983;-87
2024/03/12 00:35:48;;;;;;;14.23;9.00;;;;;;;;;;5008691;28;20581;-89
2024/03/12 00:38:17;;;;;;;13.43;9.60;;;;;;;;;;4996683;28;20823;-87
2024/03/12 00:40:47;;;;;;;16.17;10.60;;;;;;;;;;5022941;28;20458;-86
2024/03/12 00:43:15;;;;;;;14.77;9.87;;;;;;;;;;5019131;28;20481;-87
2024/03/12 00:45:44;;;;;;;16.63;10.60;;;;;;;;;;5044678;28;20488;-89
2024/03/12 00:48:15;;;;;;;17.57;10.83;;;;;;;;;;5022795;28;20494;-87
2024/03/12 00:50:45;;;;;;;15.70;11.23;;;;;;;;;;5013840;28;20458;-87
2024/03/12 00:53:13;;;;;;;18.63;12.20;;;;;;;;;;5012709;28;22126;-87
2024/03/12 00:55:41;;;;;;;16.23;11.40;;;;;;;;;;5016937;28;20552;-87
2024/03/12 00:58:10;;;;;;;19.37;12.67;;;;;;;;;;5025962;28;20440;-88
2024/03/12 01:00:39;;;;;;;18.40;12.90;;;;;;;;;;5027771;28;20544;-87
2024/03/12 01:03:11;;;;;;;17.93;12.83;;;;;;;;;;5023630;28;20458;-85
2024/03/12 01:05:39;;;;;;;19.03;12.33;;;;;;;;;;5019235;28;20490;-88
2024/03/12 01:08:07;;;;;;;21.43;13.30;;;;;;;;;;5011427;28;20446;-88
2024/03/12 01:10:35;;;;;;;22.07;13.53;;;;;;;;;;5024863;28;20512;-85
2024/03/12 01:13:08;;;;;;;20.20;14.10;;;;;;;;;;5013596;28;20450;-87
2024/03/12 01:15:36;;;;;;;20.90;14.00;;;;;;;;;;5007085;28;20516;-87
2024/03/12 01:18:04;;;;;;;23.53;14.63;;;;;;;;;;5010328;28;20561;-87
2024/03/12 01:20:34;;;;;;;26.83;16.93;;;;;;;;;;5010160;28;20458;-87
2024/03/12 01:23:04;;;;;;;23.93;15.80;;;;;;;;;;5010486;28;20465;-87
2024/03/12 01:25:34;;;;;;;25.80;16.37;;;;;;;;;;5008943;28;20496;-87
2024/03/12 01:28:04;;;;;;;28.10;17.73;;;;;;;;;;5003266;28;20510;-89
2024/03/12 01:30:32;;;;;;;29.83;18.57;;;;;;;;;;5011703;28;20454;-86
2024/03/12 01:33:02;;;;;;;26.80;15.63;;;;;;;;;;5001264;28;20473;-87
2024/03/12 01:35:30;;;;;;;28.10;18.10;;;;;;;;;;5000568;28;20505;-88
2024/03/12 01:37:58;;;;;;;27.77;16.90;;;;;;;;;;5007410;28;20485;-87
2024/03/12 01:40:27;;;;;;;29.70;17.63;;;;;;;;;;5006493;28;20463;-89
2024/03/12 01:43:06;;;;;;;26.97;17.63;;;;;;;;;;5005914;28;20461;-88
2024/03/12 01:45:34;;;;;;;28.73;16.27;;;;;;;;;;5025929;28;20490;-87
2024/03/12 01:48:06;;;;;;;30.40;17.93;;;;;;;;;;5009217;28;20548;-87
2024/03/12 01:50:35;;;;;;;26.13;15.97;;;;;;;;;;5005342;28;21055;-85
2024/03/12 01:53:07;;;;;;;26.57;16.60;;;;;;;;;;5005086;28;20558;-89
2024/03/12 01:55:43;;;;;;;28.03;17.83;;;;;;;;;;5008589;28;20532;-85
2024/03/12 01:58:21;;;;;;;31.20;18.70;;;;;;;;;;5004835;28;20458;-87
2024/03/12 02:00:48;;;;;;;24.10;15.90;;;;;;;;;;5002125;28;20449;-88
2024/03/12 02:03:18;;;;;;;29.70;19.47;;;;;;;;;;5019304;28;22597;-86
2024/03/12 02:05:46;;;;;;;29.67;17.90;;;;;;;;;;5010125;28;20565;-87
2024/03/12 02:08:17;;;;;;;32.33;20.90;;;;;;;;;;5005611;28;20454;-86
2024/03/12 02:10:45;;;;;;;28.90;17.73;;;;;;;;;;5009003;28;22288;-85
2024/03/12 02:13:13;;;;;;;28.50;18.70;;;;;;;;;;5014490;28;20458;-90
2024/03/12 02:15:41;;;;;;;28.53;18.33;;;;;;;;;;5029994;28;20470;-88
2024/03/12 02:18:09;;;;;;;29.00;19.07;;;;;;;;;;5029955;28;20489;-87
2024/03/12 02:20:38;;;;;;;32.43;18.17;;;;;;;;;;5028360;28;20472;-88
2024/03/12 02:23:05;;;;;;;29.10;19.90;;;;;;;;;;5029745;28;20450;-87
2024/03/12 02:25:37;;;;;;;27.50;17.83;;;;;;;;;;5028848;28;20485;-87
2024/03/12 02:28:12;;;;;;;28.33;17.40;;;;;;;;;;5018052;28;20457;-85
2024/03/12 02:30:58;;;;;;;27.90;18.03;;;;;;;;;;5018053;28;20878;-86
2024/03/12 02:33:33;;;;;;;29.17;17.70;;;;;;;;;;5025812;28;20450;-88
2024/03/12 02:36:12;;;;;;;27.83;18.03;;;;;;;;;;5018636;28;20501;-85
2024/03/12 02:38:46;;;;;;;25.00;17.67;;;;;;;;;;5019471;28;20577;-87
2024/03/12 02:41:21;;;;;;;27.60;16.87;;;;;;;;;;5021666;28;21035;-86
2024/03/12 02:44:09;;;;;;;;;;;;;;;;;;;;;
2024/03/12 02:46:52;;;;;;;28.93;17.90;;;;;;;;;;5023739;28;20613;-82
2024/03/12 02:49:23;;;;;;;30.47;18.47;;;;;;;;;;5021609;28;20456;-88
2024/03/12 02:51:59;;;;;;;28.83;17.73;;;;;;;;;;5018311;28;20445;-88
2024/03/12 02:54:29;;;;;;;25.53;17.50;;;;;;;;;;5019722;28;20453;-88
2024/03/12 02:57:00;;;;;;;27.57;17.90;;;;;;;;;;5021089;28;20586;-86
2024/03/12 02:59:30;;;;;;;23.23;17.27;;;;;;;;;;5019196;28;21425;-88
2024/03/12 03:02:01;;;;;;;27.30;17.70;;;;;;;;;;5019523;28;20493;-87
2024/03/12 03:04:36;;;;;;;28.07;16.60;;;;;;;;;;5021855;28;20438;-87
2024/03/12 03:07:12;;;;;;;26.93;17.70;;;;;;;;;;5020000;28;20984;-87
2024/03/12 03:09:41;;;;;;;23.63;15.77;;;;;;;;;;5007351;28;20441;-87
2024/03/12 03:12:23;;;;;;;25.40;17.00;;;;;;;;;;5012664;28;20497;-84
2024/03/12 03:14:53;;;;;;;25.70;17.40;;;;;;;;;;5011773;28;20457;-88
2024/03/12 03:17:21;;;;;;;18.73;14.07;;;;;;;;;;5007213;28;20450;-87
2024/03/12 03:19:58;;;;;;;19.73;14.37;;;;;;;;;;5010329;28;20451;-89
2024/03/12 03:22:32;;;;;;;21.87;13.53;;;;;;;;;;5001887;28;20470;-85
2024/03/12 03:24:59;;;;;;;22.00;13.60;;;;;;;;;;5003587;28;20805;-87
2024/03/12 03:27:29;;;;;;;19.40;13.53;;;;;;;;;;5008945;28;20517;-87
2024/03/12 03:29:59;;;;;;;18.20;13.50;;;;;;;;;;5003698;28;20466;-86
2024/03/12 03:32:29;;;;;;;16.93;12.80;;;;;;;;;;5012535;28;20469;-86
2024/03/12 03:34:56;;;;;;;22.10;13.73;;;;;;;;;;5011958;28;20465;-86
2024/03/12 03:37:30;;;;;;;19.47;12.77;;;;;;;;;;5021499;28;20575;-86
2024/03/12 03:39:58;;;;;;;20.10;12.93;;;;;;;;;;5006523;28;20476;-86
2024/03/12 03:42:26;;;;;;;19.53;13.27;;;;;;;;;;5007287;28;20458;-87
2024/03/12 03:44:55;;;;;;;19.03;12.93;;;;;;;;;;5011337;28;20470;-87
2024/03/12 03:47:23;;;;;;;18.10;11.97;;;;;;;;;;5013456;28;20473;-85
2024/03/12 03:49:54;;;;;;;19.80;12.73;;;;;;;;;;5013918;28;20458;-87
2024/03/12 03:52:24;;;;;;;19.60;12.67;;;;;;;;;;5028782;28;20430;-88
2024/03/12 03:54:59;;;;;;;15.93;12.53;;;;;;;;;;5030065;28;20525;-86
2024/03/12 03:57:37;;;;;;;17.60;13.10;;;;;;;;;;5028947;28;20462;-88
2024/03/12 04:00:12;;;;;;;22.37;13.47;;;;;;;;;;5022229;28;20458;-85
2024/03/12 04:02:41;;;;;;;20.10;12.67;;;;;;;;;;5006575;28;20481;-86
2024/03/12 04:05:15;;;;;;;19.50;12.20;;;;;;;;;;5006314;28;20507;-86
2024/03/12 04:07:46;;;;;;;16.87;12.40;;;;;;;;;;5006567;28;20973;-88
2024/03/12 04:10:17;;;;;;;17.83;11.40;;;;;;;;;;5008279;28;20446;-85
2024/03/12 04:12:45;;;;;;;17.77;11.70;;;;;;;;;;5013963;28;20520;-87
2024/03/12 04:15:18;;;;;;;13.80;10.13;;;;;;;;;;5009704;28;20500;-88
2024/03/12 04:17:47;;;;;;;12.70;9.90;;;;;;;;;;5020815;28;20501;-86
2024/03/12 04:20:24;;;;;;;16.13;10.17;;;;;;;;;;5028393;28;20509;-83
2024/03/12 04:22:54;;;;;;;17.77;10.80;;;;;;;;;;5022410;28;20447;-87
2024/03/12 04:25:22;;;;;;;13.80;10.10;;;;;;;;;;5010050;28;21380;-85
2024/03/12 04:27:53;;;;;;;18.37;11.30;;;;;;;;;;5005540;28;20451;-87
2024/03/12 04:30:23;;;;;;;16.27;11.73;;;;;;;;;;5003199;28;20533;-85
2024/03/12 04:32:51;;;;;;;14.50;10.23;;;;;;;;;;5004046;28;20458;-85
2024/03/12 04:35:22;;;;;;;15.63;10.80;;;;;;;;;;5003959;28;21771;-87
2024/03/12 04:37:50;;;;;;;14.10;10.73;;;;;;;;;;5003515;28;20471;-86
2024/03/12 04:40:21;;;;;;;14.60;10.87;;;;;;;;;;5001205;28;20456;-85
2024/03/12 04:42:53;;;;;;;16.60;11.03;;;;;;;;;;5019289;28;20494;-84
2024/03/12 04:45:32;;;;;;;12.87;9.70;;;;;;;;;;5001364;28;20512;-88
2024/03/12 04:48:00;;;;;;;15.60;9.90;;;;;;;;;;5020177;28;20511;-88
2024/03/12 04:50:31;;;;;;;12.70;10.20;;;;;;;;;;5004466;28;20434;-87
2024/03/12 04:53:00;;;;;;;16.50;10.33;;;;;;;;;;5005584;28;20466;-86
2024/03/12 04:55:28;;;;;;;17.70;11.97;;;;;;;;;;5000982;28;20474;-86
2024/03/12 04:58:05;;;;;;;15.03;10.80;;;;;;;;;;5003287;28;20457;-85
2024/03/12 05:00:35;;;;;;;14.73;10.10;;;;;;;;;;5002742;28;20489;-87
2024/03/12 05:03:05;;;;;;;20.10;12.40;;;;;;;;;;5024260;28;20434;-85
2024/03/12 05:05:32;;;;;;;17.90;10.87;;;;;;;;;;5010519;28;20912;-86
2024/03/12 05:08:04;;;;;;;15.70;11.00;;;;;;;;;;5015798;28;20809;-88
2024/03/12 05:10:33;;;;;;;16.23;11.10;;;;;;;;;;5024012;28;20458;-89
2024/03/12 05:13:04;;;;;;;15.90;9.97;;;;;;;;;;5022712;28;20462;-86
2024/03/12 05:15:36;;;;;;;18.30;10.80;;;;;;;;;;5013770;28;20481;-86
2024/03/12 05:18:04;;;;;;;16.73;10.53;;;;;;;;;;5015291;28;20505;-85
2024/03/12 05:20:36;;;;;;;18.43;10.20;;;;;;;;;;5009703;28;20941;-86
2024/03/12 05:23:04;;;;;;;17.50;11.40;;;;;;;;;;5019073;28;20503;-86
2024/03/12 05:25:39;;;;;;;15.77;12.17;;;;;;;;;;5013595;28;20474;-86
2024/03/12 05:28:10;;;;;;;18.03;11.10;;;;;;;;;;5011062;28;20504;-85
2024/03/12 05:30:40;;;;;;;19.97;12.87;;;;;;;;;;5009246;28;20469;-85
2024/03/12 05:33:14;;;;;;;17.43;12.40;;;;;;;;;;5012517;28;20462;-84
2024/03/12 05:35:54;;;;;;;19.70;12.30;;;;;;;;;;5013342;28;20535;-87
2024/03/12 05:41:25;;;;;;;17.23;11.47;;;;;;;;;;5019089;28;20464;-86
2024/03/12 05:49:49;;;;;;;17.40;11.10;;;;;;;;;;5022413;28;20525;-87
2024/03/12 05:52:20;;;;;;;20.13;11.93;;;;;;;;;;5019287;28;20493;-87
2024/03/12 05:54:51;;;;;;;15.80;11.07;;;;;;;;;;5016706;28;20464;-87
2024/03/12 05:57:29;;;;;;;20.63;12.53;;;;;;;;;;5016604;28;20554;-86
2024/03/12 06:00:11;;;;;;;17.80;13.10;;;;;;;;;;5009355;28;20465;-88
2024/03/12 06:02:43;;;;;;;16.77;12.03;;;;;;;;;;5010166;28;20552;-85
2024/03/12 06:05:13;;;;;;;16.40;11.87;;;;;;;;;;5013252;28;20458;-87
2024/03/12 06:07:52;;;;;;;18.13;11.83;;;;;;;;;;5015603;28;20464;-87
2024/03/12 06:10:26;;;;;;;17.83;12.43;;;;;;;;;;5028923;28;20450;-86
2024/03/12 06:12:53;;;;;;;19.30;12.33;;;;;;;;;;5026238;28;20962;-86
2024/03/12 06:15:59;;;;;;;18.13;12.93;;;;;;;;;;5006033;28;21202;-85
2024/03/12 06:18:32;;;;;;;20.13;12.60;;;;;;;;;;5006145;28;20449;-85
2024/03/12 06:21:00;;;;;;;19.50;13.00;;;;;;;;;;5025294;28;20434;-86
2024/03/12 06:23:29;;;;;;;15.70;10.80;;;;;;;;;;5019253;28;20517;-86
2024/03/12 06:25:58;;;;;;;19.57;14.43;;;;;;;;;;5028301;28;20498;-89
2024/03/12 06:28:27;;;;;;;18.57;12.13;;;;;;;;;;5025134;28;20481;-89
2024/03/12 06:30:58;;;;;;;18.20;12.30;;;;;;;;;;5023221;28;20453;-87
2024/03/12 06:33:30;;;;;;;20.17;12.53;;;;;;;;;;5024066;28;20459;-88
2024/03/12 06:36:03;;;;;;;17.43;11.93;;;;;;;;;;5018462;28;20486;-88
2024/03/12 06:38:34;;;;;;;20.83;12.60;;;;;;;;;;5007306;28;20462;-86
2024/03/12 06:41:05;;;;;;;17.63;12.13;;;;;;;;;;5022976;28;20489;-86
2024/03/12 06:43:33;;;;;;;17.30;11.13;;;;;;;;;;5027481;28;20454;-88
2024/03/12 06:46:01;;;;;;;24.03;13.10;;;;;;;;;;5017255;28;20446;-87
2024/03/12 06:48:29;;;;;;;20.47;12.13;;;;;;;;;;5008167;28;20442;-84
2024/03/12 06:51:00;;;;;;;18.90;12.60;;;;;;;;;;5029410;28;20569;-86
2024/03/12 06:53:35;;;;;;;19.10;11.90;;;;;;;;;;5009419;28;20454;-86
2024/03/12 06:56:06;;;;;;;18.00;11.50;;;;;;;;;;5014290;28;20527;-85
2024/03/12 06:58:42;;;;;;;19.40;11.40;;;;;;;;;;5013772;28;20566;-86
2024/03/12 07:01:12;;;;;;;17.80;11.03;;;;;;;;;;4993639;28;20528;-84
2024/03/12 07:03:42;;;;;;;18.13;12.07;;;;;;;;;;4996112;28;20446;-85
2024/03/12 07:06:21;;;;;;;19.30;12.67;;;;;;;;;;4994271;28;20552;-85
2024/03/12 07:09:01;;;;;;;23.50;12.80;;;;;;;;;;4993208;28;20459;-84
2024/03/12 07:11:29;;;;;;;16.03;10.27;;;;;;;;;;4994867;28;20573;-85
2024/03/12 07:14:12;;;;;;;15.33;10.27;;;;;;;;;;4995796;28;20466;-86
2024/03/12 07:16:44;;;;;;;18.40;11.67;;;;;;;;;;4998487;28;20540;-86
2024/03/12 07:19:12;;;;;;;18.43;11.33;;;;;;;;;;5002285;28;20458;-84
2024/03/12 07:21:45;;;;;;;19.77;10.80;;;;;;;;;;5002858;28;20469;-84
2024/03/12 07:24:26;;;;;;;18.33;10.17;;;;;;;;;;5000683;28;20469;-86
2024/03/12 07:26:54;;;;;;;16.07;10.87;;;;;;;;;;5011708;28;20482;-88
2024/03/12 07:29:25;;;;;;;15.37;9.80;;;;;;;;;;5018401;28;20454;-89
2024/03/12 07:31:55;;;;;;;15.73;10.80;;;;;;;;;;5034329;28;20462;-87
2024/03/12 07:34:32;;;;;;;16.77;10.23;;;;;;;;;;5009538;28;20455;-87
2024/03/12 07:37:06;;;;;;;22.63;11.23;;;;;;;;;;5020174;28;20504;-87
2024/03/12 07:39:38;;;;;;;18.10;11.23;;;;;;;;;;5014329;28;20542;-86
2024/03/12 07:42:12;;;;;;;18.07;11.47;;;;;;;;;;5012397;28;20466;-85
2024/03/12 07:44:47;;;;;;;16.67;11.57;;;;;;;;;;5025986;28;20472;-86
2024/03/12 07:47:20;;;;;;;17.90;12.00;;;;;;;;;;5014522;28;20492;-86
2024/03/12 07:50:21;;;;;;;18.03;11.23;;;;;;;;;;5021138;28;20465;-85
2024/03/12 07:52:50;;;;;;;19.53;11.90;;;;;;;;;;5016779;28;20478;-87
2024/03/12 07:55:25;;;;;;;18.40;11.90;;;;;;;;;;5027892;28;20473;-87
2024/03/12 07:58:02;;;;;;;18.17;11.30;;;;;;;;;;5018351;28;20474;-87
2024/03/12 08:00:32;;;;;;;19.57;12.90;;;;;;;;;;5007243;28;20468;-86
2024/03/12 08:03:03;;;;;;;20.03;12.17;;;;;;;;;;5013317;28;20546;-87
2024/03/12 08:05:35;;;;;;;22.47;14.13;;;;;;;;;;5015165;28;20491;-87
2024/03/12 08:11:20;;;;;;;22.27;14.30;;;;;;;;;;5015928;28;21005;-86
2024/03/12 08:14:05;;;;;;;22.17;13.77;;;;;;;;;;5011677;28;20458;-87
2024/03/12 08:16:33;;;;;;;19.20;13.97;;;;;;;;;;5019396;28;20584;-86
2024/03/12 08:19:04;;;;;;;19.67;12.43;;;;;;;;;;5011015;28;20553;-89
2024/03/12 08:21:40;;;;;;;23.93;13.60;;;;;;;;;;5014785;28;20446;-87
2024/03/12 08:24:10;;;;;;;22.07;12.57;;;;;;;;;;5007770;28;20457;-89
2024/03/12 08:26:47;;;;;;;20.80;13.60;;;;;;;;;;5007023;28;20520;-86
2024/03/12 08:29:28;;;;;;;21.37;12.67;;;;;;;;;;5003529;28;20453;-87
2024/03/12 08:32:04;;;;;;;21.63;13.50;;;;;;;;;;5000849;28;20457;-86
2024/03/12 08:34:37;;;;;;;23.63;11.73;;;;;;;;;;5012004;28;20479;-88
2024/03/12 08:37:11;;;;;;;20.97;13.57;;;;;;;;;;5003341;28;20492;-85
2024/03/12 08:39:52;;;;;;;19.77;12.30;;;;;;;;;;5006293;28;20450;-84
2024/03/12 08:42:23;;;;;;;23.03;14.10;;;;;;;;;;5011196;28;20473;-85
2024/03/12 08:44:51;;;;;;;20.50;12.53;;;;;;;;;;5004331;28;20846;-86
2024/03/12 08:47:20;;;;;;;19.50;13.17;;;;;;;;;;5012386;28;20540;-90
2024/03/12 08:49:53;;;;;;;20.90;12.27;;;;;;;;;;5008036;28;20509;-87
2024/03/12 08:52:24;;;;;;;21.60;12.70;;;;;;;;;;5017026;28;20449;-89
2024/03/12 08:54:52;;;;;;;22.87;13.70;;;;;;;;;;5023493;28;20465;-90
2024/03/12 08:57:29;;;;;;;20.73;12.60;;;;;;;;;;5029081;28;20481;-89
2024/03/12 09:00:05;;;;;;;20.97;13.13;;;;;;;;;;5031415;28;20442;-87
2024/03/12 09:02:43;;;;;;;19.70;12.67;;;;;;;;;;5031347;28;20458;-87
2024/03/12 09:05:20;;;;;;;20.83;12.30;;;;;;;;;;5012236;28;20454;-86
2024/03/12 09:08:06;;;;;;;20.00;13.00;;;;;;;;;;5017242;28;20532;-88
2024/03/12 09:10:39;;;;;;;27.63;13.20;;;;;;;;;;5028912;28;20437;-87
2024/03/12 09:13:21;;;;;;;21.47;12.20;;;;;;;;;;5024491;28;20766;-89
2024/03/12 09:15:52;;;;;;;19.83;12.60;;;;;;;;;;5015814;28;20466;-87
2024/03/12 09:18:20;;;;;;;20.57;13.47;;;;;;;;;;5008175;28;20554;-86
2024/03/12 09:20:54;;;;;;;18.57;11.17;;;;;;;;;;5008056;28;20466;-85
2024/03/12 09:23:36;;;;;;;17.90;12.17;;;;;;;;;;5012688;28;20457;-88
2024/03/12 09:26:18;;;;;;;21.17;12.63;;;;;;;;;;5025845;28;20489;-87
2024/03/12 09:28:53;;;;;;;22.20;13.90;;;;;;;;;;5023731;28;20492;-88
2024/03/12 09:31:36;;;;;;;18.43;13.03;;;;;;;;;;5020589;28;20481;-86
2024/03/12 09:34:08;;;;;;;24.37;13.27;;;;;;;;;;5015835;28;20458;-87
2024/03/12 09:37:20;;;;;;;20.00;11.93;;;;;;;;;;5013053;28;20477;-86
2024/03/12 09:42:44;;;;;;;15.50;11.27;;;;;;;;;;5017104;28;20470;-88
2024/03/12 09:45:24;;;;;;;16.03;11.63;;;;;;;;;;5016021;28;20458;-86
2024/03/12 09:48:03;;;;;;;24.00;11.90;;;;;;;;;;5026999;28;20524;-89
2024/03/12 09:50:46;;;;;;;16.77;11.37;;;;;;;;;;5010074;28;20457;-86
2024/03/12 09:53:25;;;;;;;17.10;13.10;;;;;;;;;;5004676;28;20493;-88
2024/03/12 09:55:55;;;;;;;16.57;11.70;;;;;;;;;;5003380;28;20550;-85
2024/03/12 09:58:34;;;;;;;19.60;11.77;;;;;;;;;;5002343;28;20454;-86
2024/03/12 10:01:44;;;;;;;18.40;11.60;;;;;;;;;;5005740;28;20466;-86
2024/03/12 10:04:34;;;;;;;15.33;11.33;;;;;;;;;;5004273;28;20911;-88
2024/03/12 10:07:16;;;;;;;15.83;11.20;;;;;;;;;;5004568;28;20930;-86
2024/03/12 10:09:53;;;;;;;21.90;11.70;;;;;;;;;;5003825;28;20957;-86
2024/03/12 10:12:46;;;;;;;18.13;11.67;;;;;;;;;;5026108;28;20569;-88
2024/03/12 10:18:12;;;;;;;21.13;13.90;;;;;;;;;;5011518;26;20567;-85
2024/03/12 10:21:01;;;;;;;17.77;13.07;;;;;;;;;;5020035;28;20462;-87
2024/03/12 10:23:40;;;;;;;18.50;13.37;;;;;;;;;;5006469;28;20462;-85
2024/03/12 10:28:55;;;;;;;20.67;14.57;;;;;;;;;;5021560;28;20489;-88
2024/03/12 10:31:29;;;;;;;28.50;16.30;;;;;;;;;;5021029;28;20493;-85
2024/03/12 10:34:21;;;;;;;21.30;13.13;;;;;;;;;;5017240;28;20472;-89
2024/03/12 10:37:04;;;;;;;17.20;12.07;;;;;;;;;;5040827;28;20488;-87
2024/03/12 10:39:42;;;;;;;17.20;12.27;;;;;;;;;;5045206;28;20442;-88
2024/03/12 10:42:26;;;;;;;22.43;14.80;;;;;;;;;;5022485;28;20497;-87
2024/03/12 10:45:07;;;;;;;19.80;12.37;;;;;;;;;;5024356;28;20444;-87
2024/03/12 10:47:44;;;;;;;22.23;15.47;;;;;;;;;;5027467;28;20557;-89
2024/03/12 10:50:31;;;;;;;18.13;12.90;;;;;;;;;;5036045;28;20430;-87
2024/03/12 10:53:07;;;;;;;18.37;12.90;;;;;;;;;;5030326;28;20520;-87
2024/03/12 10:55:53;;;;;;;19.37;13.50;;;;;;;;;;5028566;28;21083;-88
2024/03/12 10:58:35;;;;;;;19.50;13.80;;;;;;;;;;5027600;28;20558;-88
2024/03/12 11:01:09;;;;;;;21.43;13.90;;;;;;;;;;5029351;28;20521;-87
2024/03/12 11:04:01;;;;;;;21.73;14.10;;;;;;;;;;5027769;28;20497;-89
2024/03/12 11:07:03;;;;;;;21.03;13.57;;;;;;;;;;5026431;28;20478;-87
2024/03/12 11:09:48;;;;;;;17.50;12.17;;;;;;;;;;5027491;28;20468;-89
2024/03/12 11:12:41;;;;;;;17.90;13.27;;;;;;;;;;5043054;28;20451;-90
2024/03/12 11:15:26;;;;;;;19.50;13.07;;;;;;;;;;5026289;28;20482;-88
2024/03/12 11:18:09;;;;;;;21.83;13.77;;;;;;;;;;5023951;28;20499;-87
2024/03/12 11:20:48;;;;;;;19.23;14.00;;;;;;;;;;5024677;28;20443;-86
2024/03/12 11:23:59;;;;;;;20.80;15.00;;;;;;;;;;5041770;28;20463;-87
2024/03/12 11:26:36;;;;;;;21.20;14.87;;;;;;;;;;5023393;28;20479;-88
2024/03/12 11:29:16;;;;;;;18.97;12.93;;;;;;;;;;5029707;28;20462;-89
2024/03/12 11:32:14;;;;;;;20.70;15.07;;;;;;;;;;5026201;28;21182;-88
2024/03/12 11:35:00;;;;;;;22.37;13.67;;;;;;;;;;5028979;28;20450;-87
2024/03/12 11:37:44;;;;;;;23.73;15.37;;;;;;;;;;5023719;28;20474;-86
2024/03/12 11:40:26;;;;;;;22.33;13.93;;;;;;;;;;5026096;28;20477;-88
2024/03/12 11:42:57;;;;;;;21.10;15.20;;;;;;;;;;5023610;28;20457;-88
2024/03/12 11:45:46;;;;;;;22.00;15.53;;;;;;;;;;5040970;28;20473;-87
2024/03/12 11:48:45;;;;;;;21.90;15.40;;;;;;;;;;5019905;28;20558;-88
2024/03/12 11:51:57;;;;;;;22.73;14.73;;;;;;;;;;5018636;28;20502;-88
2024/03/12 11:54:48;;;;;;;20.07;13.90;;;;;;;;;;5017630;28;20458;-86
2024/03/12 11:57:20;;;;;;;24.03;14.67;;;;;;;;;;5017621;28;20492;-88
2024/03/12 11:59:54;;;;;;;25.20;15.40;;;;;;;;;;5012990;28;20471;-86
2024/03/12 12:02:26;;;;;;;22.20;14.20;;;;;;;;;;5033602;28;20718;-85
2024/03/12 12:05:10;;;;;;;22.50;14.53;;;;;;;;;;5012340;28;20466;-88
2024/03/12 12:07:51;;;;;;;23.63;14.90;;;;;;;;;;5014836;28;20493;-86
2024/03/12 12:10:20;;;;;;;23.53;14.77;;;;;;;;;;5015046;28;20446;-87
2024/03/12 12:12:55;;;;;;;26.07;16.80;;;;;;;;;;5015281;28;20482;-86
2024/03/12 12:15:29;;;;;;;26.73;15.20;;;;;;;;;;5022527;28;20485;-89
2024/03/12 12:18:10;;;;;;;21.10;13.43;;;;;;;;;;5033361;28;20469;-86
2024/03/12 12:20:41;;;;;;;22.00;14.43;;;;;;;;;;5028151;28;20489;-86
2024/03/12 12:23:13;;;;;;;22.03;14.37;;;;;;;;;;5023846;28;20481;-85
2024/03/12 12:25:46;;;;;;;22.57;13.30;;;;;;;;;;5011067;28;21062;-86
2024/03/12 12:28:24;;;;;;;21.07;14.50;;;;;;;;;;5019026;28;20478;-88
2024/03/12 12:31:23;;;;;;;22.20;14.73;;;;;;;;;;5024012;28;20401;-87
2024/03/12 12:34:21;;;;;;;16.73;12.53;;;;;;;;;;5021263;28;20430;-86
2024/03/12 12:36:52;;;;;;;27.40;15.40;;;;;;;;;;5019057;28;20462;-87
2024/03/12 12:39:34;;;;;;;20.37;13.77;;;;;;;;;;5017084;28;20453;-90
2024/03/12 12:42:14;;;;;;;19.13;13.07;;;;;;;;;;5010594;28;21042;-87
2024/03/12 12:44:53;;;;;;;22.97;13.80;;;;;;;;;;5013224;28;20496;-87
2024/03/12 12:47:50;;;;;;;22.37;14.70;;;;;;;;;;5022704;28;20529;-87
2024/03/12 12:50:47;;;;;;;18.57;13.37;;;;;;;;;;5002395;28;20462;-87
2024/03/12 12:53:31;;;;;;;20.37;15.10;;;;;;;;;;5010280;28;20462;-85
2024/03/12 12:56:08;;;;;;;19.83;13.53;;;;;;;;;;5007067;28;20513;-87
2024/03/12 12:58:51;;;;;;;18.97;14.70;;;;;;;;;;5011503;28;20465;-86
2024/03/12 13:01:25;;;;;;;26.60;14.93;;;;;;;;;;5011857;28;20859;-86
2024/03/12 13:03:53;;;;;;;21.33;13.83;;;;;;;;;;5006130;28;20527;-89
2024/03/12 13:06:25;;;;;;;23.33;15.53;;;;;;;;;;5004742;28;20474;-85
2024/03/12 13:09:00;;;;;;;19.07;14.37;;;;;;;;;;5005737;28;20489;-88
2024/03/12 13:11:31;;;;;;;20.73;14.07;;;;;;;;;;5009001;28;20471;-87
2024/03/12 13:14:04;;;;;;;21.30;14.03;;;;;;;;;;5009914;28;20515;-86
2024/03/12 13:16:33;;;;;;;21.83;14.03;;;;;;;;;;5010043;28;20524;-86
2024/03/12 13:19:01;;;;;;;21.40;13.27;;;;;;;;;;5008996;28;20484;-86
2024/03/12 13:21:36;;;;;;;19.83;13.33;;;;;;;;;;5011574;28;20500;-89
2024/03/12 13:24:08;;;;;;;21.03;13.00;;;;;;;;;;5009307;28;20457;-88
2024/03/12 13:26:41;;;;;;;20.10;13.20;;;;;;;;;;5010618;28;20517;-88
2024/03/12 13:29:15;;;;;;;19.10;13.60;;;;;;;;;;5006261;28;20482;-88
2024/03/12 13:31:46;;;;;;;22.57;13.90;;;;;;;;;;5010500;28;20463;-85
2024/03/12 13:34:18;;;;;;;22.47;14.60;;;;;;;;;;5013106;28;20442;-85
2024/03/12 13:36:49;;;;;;;19.97;12.83;;;;;;;;;;5010957;28;21134;-86
2024/03/12 13:39:19;;;;;;;20.60;14.50;;;;;;;;;;5012254;28;20498;-85
2024/03/12 13:41:49;;;;;;;20.80;13.77;;;;;;;;;;5011687;28;20553;-88
2024/03/12 13:44:17;;;;;;;20.03;13.10;;;;;;;;;;5029968;28;20462;-89
2024/03/12 13:46:46;;;;;;;23.97;15.30;;;;;;;;;;5011649;28;20470;-86
2024/03/12 13:49:19;;;;;;;19.70;12.13;;;;;;;;;;5030363;28;20582;-87
2024/03/12 13:51:48;;;;;;;19.80;13.37;;;;;;;;;;5019042;28;20453;-86
2024/03/12 13:54:22;;;;;;;22.13;14.53;;;;;;;;;;5023937;28;20438;-86
2024/03/12 13:56:59;;;;;;;24.00;14.97;;;;;;;;;;5024876;28;20457;-89
2024/03/12 13:59:33;;;;;;;19.83;13.00;;;;;;;;;;5022653;28;20458;-88
2024/03/12 14:02:16;;;;;;;21.13;13.70;;;;;;;;;;5027937;28;20485;-87
2024/03/12 14:04:51;;;;;;;20.80;14.43;;;;;;;;;;5027230;28;20482;-88
2024/03/12 14:07:29;;;;;;;22.17;13.37;;;;;;;;;;5011445;28;20473;-85
2024/03/12 14:10:09;;;;;;;23.30;15.10;;;;;;;;;;5009476;28;20470;-86
2024/03/12 14:12:45;;;;;;;26.93;15.10;;;;;;;;;;5010803;28;20496;-84
2024/03/12 14:15:16;;;;;;;30.60;16.70;;;;;;;;;;5009730;28;20459;-86
2024/03/12 14:21:26;;;;;;;23.13;14.33;;;;;;;;;;5022094;28;20438;-85
2024/03/12 14:24:14;;;;;;;25.37;15.20;;;;;;;;;;5021037;28;20493;-88
2024/03/12 14:26:42;;;;;;;27.93;15.77;;;;;;;;;;5022305;28;20502;-88
2024/03/12 14:29:19;;;;;;;24.43;14.70;;;;;;;;;;5040968;28;20580;-86
2024/03/12 14:32:00;;;;;;;24.27;15.10;;;;;;;;;;5023218;28;20484;-88
2024/03/12 14:34:39;;;;;;;24.70;14.30;;;;;;;;;;5017385;28;20475;-85
2024/03/12 14:37:12;;;;;;;22.93;15.10;;;;;;;;;;5017291;28;20480;-88
2024/03/12 14:40:07;;;;;;;23.90;13.90;;;;;;;;;;5023161;28;20540;-86
2024/03/12 14:42:46;;;;;;;22.33;14.10;;;;;;;;;;5017460;28;20509;-87
2024/03/12 14:45:24;;;;;;;27.73;15.40;;;;;;;;;;5020021;28;20832;-89
2024/03/12 14:48:08;;;;;;;24.20;14.40;;;;;;;;;;5019682;28;20473;-85
2024/03/12 14:50:38;;;;;;;23.70;15.30;;;;;;;;;;5016882;28;20458;-87
2024/03/12 14:53:12;;;;;;;26.93;18.03;;;;;;;;;;5019475;28;20470;-86
2024/03/12 14:55:41;;;;;;;28.97;16.20;;;;;;;;;;5021405;28;20467;-86
2024/03/12 14:58:26;;;;;;;22.80;13.80;;;;;;;;;;5022509;28;20458;-85
2024/03/12 15:01:16;;;;;;;21.80;13.70;;;;;;;;;;5018199;28;20465;-85
2024/03/12 15:03:45;;;;;;;22.00;14.30;;;;;;;;;;5015173;28;20473;-88
2024/03/12 15:06:22;;;;;;;24.00;14.00;;;;;;;;;;5029957;28;20467;-85
2024/03/12 15:17:44;;;;;;;20.80;13.70;;;;;;;;;;5022013;28;20481;-87
2024/03/12 15:20:18;;;;;;;23.27;13.10;;;;;;;;;;5026284;28;20517;-87
2024/03/12 15:23:01;;;;;;;22.77;13.20;;;;;;;;;;5023184;28;20525;-87
2024/03/12 15:25:50;;;;;;;22.40;13.70;;;;;;;;;;5304488;22;20492;-87
2024/03/12 15:28:51;;;;;;;23.10;13.60;;;;;;;;;;5049730;28;20536;-89
2024/03/12 15:31:43;;;;;;;28.43;13.73;;;;;;;;;;5051262;28;20469;-88
2024/03/12 15:34:22;;;;;;;23.73;13.30;;;;;;;;;;5049293;28;20454;-86
2024/03/12 15:40:30;;;;;;;26.80;14.10;;;;;;;;;;5054552;28;20483;-85